Jacksonville Naval Air Station
KNIP : now visible

Airfield :











YOU CAN JOIN US ON...

 
LOGIN :

Register | Disclaimer

   EN    FR    IT 

 









Legend :    VFR   Marginal VFR   IFR   Intensive IFR   Very Intensive IFR
Visi :
Ceiling :
>= 8 km
>= 3000ft
5 to 8 km
1000 to 3000 ft
1500m to 5 km
500 to 1000 ft
800 to 1500m
200 to 500 ft
< 800m
< 200 ft
Symbols :   Thunderstorms  Fog  Heavy snow  Heavy precipitations  Wind > 20 kt






- Airport Elevation : 21 ft


KNIP - Jacksonville Naval Air Station

CURRENT METAR :
  • 271753Z 22006KT 10SM BKN090 17/05 A2995 RMK AO2 SLP137 60000 T01720050 10178 20128 58021

EXPIRED METARs :
  • 271653Z 15004KT 10SM BKN100 17/05 A2998 RMK AO2 RAB28E38 SLP147 P0000 T01670050
  • 271553Z 00000KT 10SM BKN100 16/05 A3001 RMK AO2 SLP157 T01560050

TAF TAF KNIP
Valid from the 27 at 15:00 until the 28 at 15:00 UTC


2715/2815 02005KT 9999 VCSH SCT050 BKN100 QNH2997INS
FM271700 20005KT 9999 VCSH SCT040 BKN060 BKN120 BKN250 QNH2989INS
FM280100 VRB04KT 9999 FEW030 BKN060 BKN250 QNH2991INS
FM280400 29007KT 9999 SCT080 SCT250 QNH2993INS T17/2720Z T09/2812Z FN20016



MET'MAP, your aeronautical weather chart ! - Copyright ORBIFLY December 2007 - Disclaimer

ORBIFLY MET'MAP TEAM :

Programming & Development : Alexandra Zaïnal
Concept & original design : Baudouin d'Aumeries
Assistance for programming : Marc-Olivier Méhu
Technical & hardware support : Manuel Goepfert

Contact : metmap@orbifly.com




SOURCES & CREDITS :

   NOAA       Earth
Advisory